createdAt,value
2018-01-28T00:00:52.334Z,1019.65
2018-01-28T00:01:52.250Z,1019.71
2018-01-28T00:02:52.263Z,1019.52
2018-01-28T00:03:52.289Z,1019.58
2018-01-28T00:04:52.300Z,1019.58
2018-01-28T00:05:52.469Z,1019.65
2018-01-28T00:06:52.339Z,1019.71
2018-01-28T00:08:52.367Z,1019.62
2018-01-28T00:09:52.385Z,1019.62
2018-01-28T00:10:52.555Z,1019.64
2018-01-28T00:11:52.419Z,1019.56
2018-01-28T00:12:52.439Z,1019.55
2018-01-28T00:13:52.454Z,1019.55
2018-01-28T00:14:52.467Z,1019.32
2018-01-28T00:15:52.482Z,1019.41
2018-01-28T00:16:52.502Z,1019.33
2018-01-28T00:17:52.515Z,1019.24
2018-01-28T00:18:52.533Z,1019.17
2018-01-28T00:19:52.702Z,1019.25
2018-01-28T00:20:52.568Z,1019.19
2018-01-28T00:21:52.591Z,1019.22
2018-01-28T00:22:52.597Z,1019.21
2018-01-28T00:23:52.614Z,1019.18
2018-01-28T00:24:52.736Z,1019.22
2018-01-28T00:25:52.649Z,1019.15
2018-01-28T00:26:52.670Z,1019.03
2018-01-28T00:27:52.834Z,1019.12
2018-01-28T00:28:52.702Z,1018.99
2018-01-28T00:29:52.724Z,1019.11
2018-01-28T00:30:52.730Z,1018.9
2018-01-28T00:31:52.747Z,1018.88
2018-01-28T00:32:52.766Z,1018.79
2018-01-28T00:33:52.782Z,1018.71
2018-01-28T00:34:52.801Z,1018.68
2018-01-28T00:35:52.820Z,1018.79
2018-01-28T00:36:52.837Z,1018.77
2018-01-28T00:37:52.853Z,1018.75
2018-01-28T00:38:52.863Z,1018.79
2018-01-28T00:40:52.903Z,1018.7
2018-01-28T00:41:52.913Z,1018.67
2018-01-28T00:42:52.936Z,1018.55
2018-01-28T00:43:52.955Z,1018.72
2018-01-28T00:44:53.122Z,1018.77
2018-01-28T00:45:53.086Z,1018.6
2018-01-28T00:46:53.003Z,1018.73
2018-01-28T00:47:53.017Z,1018.71
2018-01-28T00:48:53.039Z,1018.64
2018-01-28T00:49:53.054Z,1018.63
2018-01-28T00:50:53.225Z,1018.59
2018-01-28T00:51:53.086Z,1018.63
2018-01-28T00:52:53.103Z,1018.57
2018-01-28T00:53:53.115Z,1018.5
2018-01-28T00:54:53.136Z,1018.53
2018-01-28T00:56:53.266Z,1018.33
2018-01-28T00:57:53.180Z,1018.43
2018-01-28T00:58:53.200Z,1018.41
2018-01-28T00:59:53.223Z,1018.36
2018-01-28T01:00:53.230Z,1018.43
2018-01-28T01:01:53.398Z,1018.36
2018-01-28T01:02:53.272Z,1018.4
2018-01-28T01:03:53.287Z,1018.35
2018-01-28T01:04:53.304Z,1018.33
2018-01-28T01:05:53.316Z,1018.17
2018-01-28T01:06:53.485Z,1018.11
2018-01-28T01:07:53.352Z,1018.03
2018-01-28T01:08:53.368Z,1018
2018-01-28T01:09:53.386Z,1017.99
2018-01-28T01:10:53.404Z,1017.94
2018-01-28T01:12:53.447Z,1017.88
2018-01-28T01:13:53.448Z,1017.97
2018-01-28T01:14:53.474Z,1018.03
2018-01-28T01:15:53.480Z,1017.87
2018-01-28T01:16:53.504Z,1017.83
2018-01-28T01:17:53.520Z,1017.83
2018-01-28T01:18:53.532Z,1017.92
2018-01-28T01:19:53.552Z,1017.77
2018-01-28T01:20:53.568Z,1017.88
2018-01-28T01:21:53.589Z,1017.69
2018-01-28T01:22:53.601Z,1017.75
2018-01-28T01:23:53.625Z,1017.78
2018-01-28T01:24:53.639Z,1017.59
2018-01-28T01:25:53.656Z,1017.6
2018-01-28T01:26:53.666Z,1017.65
2018-01-28T01:28:53.700Z,1017.64
2018-01-28T01:29:53.717Z,1017.45
2018-01-28T01:30:53.739Z,1017.45
2018-01-28T01:31:53.755Z,1017.44
2018-01-28T01:32:53.769Z,1017.42
2018-01-28T01:33:53.783Z,1017.47
2018-01-28T01:34:53.804Z,1017.44
2018-01-28T01:35:53.823Z,1017.35
2018-01-28T01:36:53.843Z,1017.36
2018-01-28T01:37:53.850Z,1017.43
2018-01-28T01:38:53.872Z,1017.52
2018-01-28T01:39:53.889Z,1017.44
2018-01-28T01:40:53.904Z,1017.39
2018-01-28T01:41:53.919Z,1017.46
2018-01-28T01:43:53.954Z,1017.33
2018-01-28T01:44:53.968Z,1017.36
2018-01-28T01:45:53.987Z,1017.1
2018-01-28T01:46:54.009Z,1017.2
2018-01-28T01:47:54.028Z,1017.13
2018-01-28T01:48:54.042Z,1017.17
2018-01-28T01:49:54.058Z,1017.29
2018-01-28T01:50:54.076Z,1017.33
2018-01-28T01:51:54.084Z,1017.34
2018-01-28T01:52:54.109Z,1017.35
2018-01-28T01:53:54.123Z,1017.23
2018-01-28T01:54:54.138Z,1017.28
2018-01-28T01:55:54.153Z,1017.19
2018-01-28T01:56:54.176Z,1017.13
2018-01-28T01:57:54.194Z,1017.13
2018-01-28T01:58:54.211Z,1017.1
2018-01-28T01:59:54.226Z,1017.13
2018-01-28T02:00:54.239Z,1017.11
2018-01-28T02:01:54.259Z,1017.09
2018-01-28T02:02:54.279Z,1017.09
2018-01-28T02:03:54.290Z,1017.11
2018-01-28T02:04:54.304Z,1016.92
2018-01-28T02:05:54.331Z,1017.06
2018-01-28T02:06:54.340Z,1017.01
2018-01-28T02:07:54.356Z,1016.98
2018-01-28T02:08:54.376Z,1016.99
2018-01-28T02:09:54.388Z,1017.07
2018-01-28T02:10:54.405Z,1017.06
2018-01-28T02:11:54.428Z,1017.04
2018-01-28T02:12:54.447Z,1016.98
2018-01-28T02:13:54.455Z,1016.88
2018-01-28T02:15:54.496Z,1016.86
2018-01-28T02:16:54.510Z,1016.81
2018-01-28T02:17:54.524Z,1016.9
2018-01-28T02:18:54.547Z,1016.87
2018-01-28T02:19:54.556Z,1016.92
2018-01-28T02:20:54.579Z,1016.8
2018-01-28T02:21:54.596Z,1016.85
2018-01-28T02:22:54.611Z,1016.79
2018-01-28T02:23:54.627Z,1016.81
2018-01-28T02:24:54.646Z,1016.73
2018-01-28T02:25:54.661Z,1016.81
2018-01-28T02:26:54.682Z,1016.9
2018-01-28T02:27:54.694Z,1016.82
2018-01-28T02:28:54.706Z,1016.88
2018-01-28T02:29:54.724Z,1016.85
2018-01-28T02:31:54.785Z,1016.92
2018-01-28T02:32:54.778Z,1016.78
2018-01-28T02:33:54.793Z,1016.82
2018-01-28T02:34:54.810Z,1016.75
2018-01-28T02:35:54.833Z,1016.76
2018-01-28T02:36:54.847Z,1016.95
2018-01-28T02:37:54.865Z,1016.84
2018-01-28T02:38:54.873Z,1016.91
2018-01-28T02:39:54.892Z,1016.88
2018-01-28T02:40:54.912Z,1016.79
2018-01-28T02:41:54.928Z,1016.82
2018-01-28T02:42:54.942Z,1016.65
2018-01-28T02:43:54.967Z,1016.75
2018-01-28T02:44:54.985Z,1016.71
2018-01-28T02:45:54.992Z,1016.62
2018-01-28T02:47:55.024Z,1016.55
2018-01-28T02:48:55.051Z,1016.63
2018-01-28T02:49:55.068Z,1016.44
2018-01-28T02:50:55.079Z,1016.51
2018-01-28T02:51:55.099Z,1016.5
2018-01-28T02:52:55.113Z,1016.42
2018-01-28T02:53:55.132Z,1016.35
2018-01-28T02:54:55.146Z,1016.34
2018-01-28T02:55:55.165Z,1016.39
2018-01-28T02:56:55.181Z,1016.43
2018-01-28T02:57:55.199Z,1016.44
2018-01-28T02:58:55.209Z,1016.36
2018-01-28T02:59:55.226Z,1016.37
2018-01-28T03:00:55.253Z,1016.45
2018-01-28T03:01:55.266Z,1016.36
2018-01-28T03:03:55.295Z,1016.33
2018-01-28T03:04:55.312Z,1016.25
2018-01-28T03:05:55.330Z,1016.32
2018-01-28T03:06:55.344Z,1016.4
2018-01-28T03:07:55.367Z,1016.39
2018-01-28T03:08:55.381Z,1016.43
2018-01-28T03:09:55.405Z,1016.4
2018-01-28T03:10:55.416Z,1016.42
2018-01-28T03:11:55.431Z,1016.39
2018-01-28T03:12:55.451Z,1016.34
2018-01-28T03:13:55.467Z,1016.41
2018-01-28T03:14:55.484Z,1016.35
2018-01-28T03:15:55.503Z,1016.32
2018-01-28T03:16:55.667Z,1016.27
2018-01-28T03:18:55.703Z,1016.3
2018-01-28T03:19:55.571Z,1016.25
2018-01-28T03:20:55.591Z,1016.31
2018-01-28T03:21:55.602Z,1016.3
2018-01-28T03:22:55.622Z,1016.37
2018-01-28T03:23:55.635Z,1016.34
2018-01-28T03:24:55.659Z,1016.3
2018-01-28T03:25:55.676Z,1016.44
2018-01-28T03:26:55.684Z,1016.33
2018-01-28T03:27:55.848Z,1016.33
2018-01-28T03:28:55.717Z,1016.34
2018-01-28T03:29:55.735Z,1016.31
2018-01-28T03:30:55.905Z,1016.36
2018-01-28T03:31:55.776Z,1016.35
2018-01-28T03:32:55.788Z,1016.29
2018-01-28T03:33:55.808Z,1016.24
2018-01-28T03:34:55.823Z,1016.23
2018-01-28T03:35:55.841Z,1016.31
2018-01-28T03:36:55.859Z,1016.33
2018-01-28T03:37:55.873Z,1016.32
2018-01-28T03:38:55.886Z,1016.35
2018-01-28T03:39:55.906Z,1016.3
2018-01-28T03:40:55.925Z,1016.43
2018-01-28T03:41:55.941Z,1016.31
2018-01-28T03:42:56.103Z,1016.35
2018-01-28T03:43:55.976Z,1016.28
2018-01-28T03:44:55.997Z,1016.27
2018-01-28T03:45:56.013Z,1016.22
2018-01-28T03:46:56.024Z,1016.3
2018-01-28T03:47:56.040Z,1016.37
2018-01-28T03:48:56.055Z,1016.4
2018-01-28T03:50:56.098Z,1016.46
2018-01-28T03:51:56.112Z,1016.55
2018-01-28T03:52:56.124Z,1016.52
2018-01-28T03:53:56.139Z,1016.5
2018-01-28T03:54:56.161Z,1016.45
2018-01-28T03:55:56.178Z,1016.26
2018-01-28T03:56:56.193Z,1016.26
2018-01-28T03:57:56.215Z,1016.25
2018-01-28T03:58:56.224Z,1016.29
2018-01-28T03:59:56.242Z,1016.23
2018-01-28T04:00:56.257Z,1016.21
2018-01-28T04:01:56.282Z,1016.29
2018-01-28T04:02:56.301Z,1016.19
2018-01-28T04:03:56.317Z,1016.28
2018-01-28T04:04:56.335Z,1016.44
2018-01-28T04:06:56.368Z,1016.36
2018-01-28T04:07:56.375Z,1016.35
2018-01-28T04:08:56.553Z,1016.32
2018-01-28T04:09:56.413Z,1016.26
2018-01-28T04:10:56.427Z,1016.35
2018-01-28T04:11:56.446Z,1016.31
2018-01-28T04:12:56.465Z,1016.24
2018-01-28T04:13:56.478Z,1016.33
2018-01-28T04:14:56.497Z,1016.38
2018-01-28T04:15:56.516Z,1016.4
2018-01-28T04:16:56.530Z,1016.25
2018-01-28T04:17:56.556Z,1016.32
2018-01-28T04:18:56.560Z,1016.38
2018-01-28T04:19:56.582Z,1016.33
2018-01-28T04:20:56.602Z,1016.46
2018-01-28T04:22:56.635Z,1016.4
2018-01-28T04:23:56.651Z,1016.31
2018-01-28T04:24:56.702Z,1016.36
2018-01-28T04:25:56.682Z,1016.33
2018-01-28T04:26:56.702Z,1016.37
2018-01-28T04:27:56.717Z,1016.39
2018-01-28T04:28:56.732Z,1016.37
2018-01-28T04:29:56.746Z,1016.36
2018-01-28T04:30:56.918Z,1016.44
2018-01-28T04:31:56.784Z,1016.47
2018-01-28T04:32:56.802Z,1016.41
2018-01-28T04:33:56.822Z,1016.31
2018-01-28T04:34:56.834Z,1016.38
2018-01-28T04:35:56.846Z,1016.36
2018-01-28T04:36:56.864Z,1016.6
2018-01-28T04:38:56.902Z,1016.56
2018-01-28T04:39:56.917Z,1016.58
2018-01-28T04:40:56.931Z,1016.64
2018-01-28T04:41:57.099Z,1016.6
2018-01-28T04:42:56.968Z,1016.74
2018-01-28T04:43:56.990Z,1016.7
2018-01-28T04:44:57.155Z,1016.71
2018-01-28T04:45:57.020Z,1016.63
2018-01-28T04:46:57.034Z,1016.64
2018-01-28T04:47:57.051Z,1016.64
2018-01-28T04:48:57.071Z,1016.75
2018-01-28T04:49:57.085Z,1016.74
2018-01-28T04:50:57.109Z,1016.73
2018-01-28T04:51:57.226Z,1016.67
2018-01-28T04:53:57.163Z,1016.69
2018-01-28T04:54:57.169Z,1016.66
2018-01-28T04:55:57.186Z,1016.65
2018-01-28T04:56:57.204Z,1016.69
2018-01-28T04:57:57.223Z,1016.63
2018-01-28T04:58:57.233Z,1016.56
2018-01-28T04:59:57.255Z,1016.51
2018-01-28T05:00:57.275Z,1016.35
2018-01-28T05:01:57.284Z,1016.45
2018-01-28T05:02:57.306Z,1016.42
2018-01-28T05:03:57.321Z,1016.44
2018-01-28T05:04:57.342Z,1016.48
2018-01-28T05:05:57.452Z,1016.49
2018-01-28T05:06:57.378Z,1016.52
2018-01-28T05:07:57.392Z,1016.69
2018-01-28T05:08:57.405Z,1016.62
2018-01-28T05:09:57.423Z,1016.55
2018-01-28T05:10:57.436Z,1016.65
2018-01-28T05:11:57.455Z,1016.59
2018-01-28T05:12:57.476Z,1016.61
2018-01-28T05:13:57.491Z,1016.62
2018-01-28T05:14:57.659Z,1016.62
2018-01-28T05:15:57.519Z,1016.56
2018-01-28T05:16:57.537Z,1016.57
2018-01-28T05:17:57.556Z,1016.53
2018-01-28T05:18:57.574Z,1016.49
2018-01-28T05:19:57.592Z,1016.54
2018-01-28T05:20:57.608Z,1016.58
2018-01-28T05:21:57.623Z,1016.62
2018-01-28T05:22:57.642Z,1016.46
2018-01-28T05:23:57.658Z,1016.55
2018-01-28T05:25:57.836Z,1016.48
2018-01-28T05:26:57.711Z,1016.64
2018-01-28T05:27:57.758Z,1016.7
2018-01-28T05:28:57.736Z,1016.72
2018-01-28T05:29:57.755Z,1016.76
2018-01-28T05:30:57.774Z,1016.69
2018-01-28T05:31:57.790Z,1016.69
2018-01-28T05:32:57.964Z,1016.67
2018-01-28T05:33:57.828Z,1016.68
2018-01-28T05:34:57.837Z,1016.73
2018-01-28T05:35:57.859Z,1016.79
2018-01-28T05:36:57.875Z,1016.87
2018-01-28T05:37:58.048Z,1016.79
2018-01-28T05:38:57.908Z,1016.84
2018-01-28T05:39:57.925Z,1016.9
2018-01-28T05:41:57.960Z,1016.85
2018-01-28T05:42:57.973Z,1016.93
2018-01-28T05:43:57.990Z,1016.9
2018-01-28T05:44:58.016Z,1017.01
2018-01-28T05:45:58.027Z,1016.94
2018-01-28T05:46:58.042Z,1017.03
2018-01-28T05:47:58.061Z,1017.06
2018-01-28T05:48:58.081Z,1017
2018-01-28T05:49:58.095Z,1017.03
2018-01-28T05:50:58.109Z,1017.06
2018-01-28T05:51:58.129Z,1017.1
2018-01-28T05:52:58.141Z,1017.09
2018-01-28T05:53:58.313Z,1017.15
2018-01-28T05:54:58.178Z,1017.13
2018-01-28T05:55:58.197Z,1017.15
2018-01-28T05:57:58.230Z,1017.15
2018-01-28T05:58:58.250Z,1017.2
2018-01-28T05:59:58.264Z,1017.23
2018-01-28T06:00:58.277Z,1017.21
2018-01-28T06:01:58.292Z,1017.36
2018-01-28T06:02:58.311Z,1017.26
2018-01-28T06:03:58.326Z,1017.31
2018-01-28T06:04:58.353Z,1017.28
2018-01-28T06:05:58.360Z,1017.46
2018-01-28T06:06:58.380Z,1017.54
2018-01-28T06:07:58.393Z,1017.62
2018-01-28T06:08:58.420Z,1017.5
2018-01-28T06:09:58.434Z,1017.48
2018-01-28T06:10:58.451Z,1017.63
2018-01-28T06:11:58.471Z,1017.52
2018-01-28T06:13:58.499Z,1017.5
2018-01-28T06:14:58.516Z,1017.56
2018-01-28T06:15:58.529Z,1017.61
2018-01-28T06:16:58.556Z,1017.67
2018-01-28T06:17:58.573Z,1017.75
2018-01-28T06:18:58.584Z,1017.79
2018-01-28T06:19:58.602Z,1017.7
2018-01-28T06:20:58.614Z,1017.75
2018-01-28T06:21:58.830Z,1017.73
2018-01-28T06:22:58.651Z,1017.79
2018-01-28T06:23:58.667Z,1017.75
2018-01-28T06:24:58.686Z,1017.76
2018-01-28T06:25:58.704Z,1017.73
2018-01-28T06:26:58.718Z,1017.68
2018-01-28T06:28:58.756Z,1017.68
2018-01-28T06:29:58.765Z,1017.66
2018-01-28T06:30:58.784Z,1017.57
2018-01-28T06:31:58.806Z,1017.63
2018-01-28T06:32:58.827Z,1017.64
2018-01-28T06:33:58.836Z,1017.67
2018-01-28T06:34:59.004Z,1017.72
2018-01-28T06:35:58.877Z,1017.67
2018-01-28T06:36:58.889Z,1017.73
2018-01-28T06:37:58.911Z,1017.72
2018-01-28T06:38:58.919Z,1017.91
2018-01-28T06:39:59.093Z,1017.81
2018-01-28T06:40:59.106Z,1017.81
2018-01-28T06:41:58.976Z,1017.76
2018-01-28T06:42:58.996Z,1017.72
2018-01-28T06:43:59.006Z,1017.81
2018-01-28T06:44:59.023Z,1017.82
2018-01-28T06:45:59.037Z,1017.8
2018-01-28T06:46:59.204Z,1017.98
2018-01-28T06:47:59.077Z,1018.08
2018-01-28T06:48:59.088Z,1018.06
2018-01-28T06:49:59.108Z,1018.1
2018-01-28T06:50:59.228Z,1018.05
2018-01-28T06:51:59.143Z,1018.03
2018-01-28T06:52:59.164Z,1018.05
2018-01-28T06:53:59.178Z,1018
2018-01-28T06:54:59.194Z,1017.94
2018-01-28T06:55:59.210Z,1018.07
2018-01-28T06:56:59.231Z,1017.92
2018-01-28T06:57:59.245Z,1017.91
2018-01-28T06:58:59.261Z,1017.93
2018-01-28T07:00:59.296Z,1017.97
2018-01-28T07:01:59.312Z,1017.98
2018-01-28T07:02:59.328Z,1017.91
2018-01-28T07:03:59.347Z,1017.84
2018-01-28T07:04:59.363Z,1017.79
2018-01-28T07:05:59.384Z,1017.83
2018-01-28T07:06:59.548Z,1017.75
2018-01-28T07:07:59.565Z,1017.88
2018-01-28T07:08:59.433Z,1017.76
2018-01-28T07:09:59.445Z,1017.79
2018-01-28T07:10:59.465Z,1017.91
2018-01-28T07:11:59.480Z,1017.93
2018-01-28T07:12:59.647Z,1017.95
2018-01-28T07:13:59.614Z,1017.97
2018-01-28T07:14:59.529Z,1017.97
2018-01-28T07:16:59.563Z,1017.94
2018-01-28T07:17:59.580Z,1018
2018-01-28T07:18:59.755Z,1017.87
2018-01-28T07:19:59.615Z,1017.94
2018-01-28T07:20:59.632Z,1017.84
2018-01-28T07:21:59.651Z,1017.85
2018-01-28T07:22:59.661Z,1017.88
2018-01-28T07:23:59.682Z,1017.86
2018-01-28T07:24:59.705Z,1017.85
2018-01-28T07:25:59.718Z,1017.87
2018-01-28T07:26:59.739Z,1017.85
2018-01-28T07:27:59.898Z,1018
2018-01-28T07:28:59.769Z,1018.02
2018-01-28T07:29:59.931Z,1018.09
2018-01-28T07:30:59.805Z,1018.2
2018-01-28T07:32:59.989Z,1018.16
2018-01-28T07:33:59.854Z,1018.22
2018-01-28T07:34:59.874Z,1018.17
2018-01-28T07:35:59.889Z,1018.2
2018-01-28T07:37:00.054Z,1018.27
2018-01-28T07:37:59.918Z,1018.24
2018-01-28T07:38:59.937Z,1018.27
2018-01-28T07:39:59.960Z,1018.24
2018-01-28T07:40:59.970Z,1018.23
2018-01-28T07:41:59.986Z,1018.27
2018-01-28T07:43:00.010Z,1018.3
2018-01-28T07:44:00.030Z,1018.33
2018-01-28T07:45:00.078Z,1018.2
2018-01-28T07:46:00.058Z,1018.32
2018-01-28T07:47:00.079Z,1018.27
2018-01-28T07:49:00.108Z,1018.33
2018-01-28T07:50:00.125Z,1018.19
2018-01-28T07:51:00.144Z,1018.31
2018-01-28T07:52:00.154Z,1018.22
2018-01-28T07:53:00.326Z,1018.27
2018-01-28T07:54:00.198Z,1018.19
2018-01-28T07:55:00.363Z,1018.24
2018-01-28T07:56:00.229Z,1018.14
2018-01-28T07:57:00.245Z,1018.34
2018-01-28T07:58:00.262Z,1018.34
2018-01-28T07:59:00.276Z,1018.34
2018-01-28T08:00:00.298Z,1018.42
2018-01-28T08:01:00.316Z,1018.32
2018-01-28T08:02:00.335Z,1018.26
2018-01-28T08:04:00.360Z,1018.21
2018-01-28T08:05:00.530Z,1018.28
2018-01-28T08:06:00.401Z,1018.37
2018-01-28T08:07:00.417Z,1018.41
2018-01-28T08:08:00.433Z,1018.36
2018-01-28T08:09:00.629Z,1018.29
2018-01-28T08:10:00.462Z,1018.35
2018-01-28T08:11:00.486Z,1018.3
2018-01-28T08:12:00.500Z,1018.36
2018-01-28T08:13:00.515Z,1018.39
2018-01-28T08:14:00.633Z,1018.42
2018-01-28T08:15:00.551Z,1018.47
2018-01-28T08:16:00.564Z,1018.58
2018-01-28T08:17:00.588Z,1018.5
2018-01-28T08:18:00.605Z,1018.5
2018-01-28T08:19:00.623Z,1018.51
2018-01-28T08:20:00.635Z,1018.45
2018-01-28T08:21:00.657Z,1018.45
2018-01-28T08:22:00.675Z,1018.45
2018-01-28T08:23:00.689Z,1018.49
2018-01-28T08:24:00.704Z,1018.41
2018-01-28T08:25:00.930Z,1018.45
2018-01-28T08:26:00.889Z,1018.42
2018-01-28T08:27:00.763Z,1018.43
2018-01-28T08:28:00.776Z,1018.56
2018-01-28T08:29:00.794Z,1018.56
2018-01-28T08:30:00.811Z,1018.57
2018-01-28T08:31:00.823Z,1018.58
2018-01-28T08:32:00.842Z,1018.65
2018-01-28T08:33:00.863Z,1018.57
2018-01-28T08:34:00.884Z,1018.55
2018-01-28T08:36:00.913Z,1018.69
2018-01-28T08:37:00.933Z,1018.65
2018-01-28T08:38:00.947Z,1018.59
2018-01-28T08:39:01.114Z,1018.7
2018-01-28T08:40:00.989Z,1018.72
2018-01-28T08:41:01.154Z,1018.75
2018-01-28T08:42:01.017Z,1018.71
2018-01-28T08:43:01.185Z,1018.77
2018-01-28T08:44:01.199Z,1018.81
2018-01-28T08:45:01.067Z,1018.71
2018-01-28T08:46:01.087Z,1018.65
2018-01-28T08:47:01.107Z,1018.66
2018-01-28T08:48:01.129Z,1018.7
2018-01-28T08:49:01.144Z,1018.79
2018-01-28T08:50:01.153Z,1018.79
2018-01-28T08:52:01.195Z,1018.74
2018-01-28T08:53:01.210Z,1018.81
2018-01-28T08:54:01.379Z,1018.76
2018-01-28T08:55:01.245Z,1018.81
2018-01-28T08:56:01.258Z,1018.92
2018-01-28T08:57:01.278Z,1018.78
2018-01-28T08:58:01.292Z,1018.81
2018-01-28T08:59:01.319Z,1018.84
2018-01-28T09:00:01.336Z,1018.84
2018-01-28T09:01:01.352Z,1018.77
2018-01-28T09:02:01.365Z,1018.79
2018-01-28T09:03:01.381Z,1018.93
2018-01-28T09:04:01.401Z,1018.79
2018-01-28T09:05:01.416Z,1018.96
2018-01-28T09:06:01.439Z,1018.78
2018-01-28T09:08:01.466Z,1018.75
2018-01-28T09:09:01.492Z,1018.73
2018-01-28T09:10:01.509Z,1018.86
2018-01-28T09:11:01.523Z,1018.87
2018-01-28T09:12:01.541Z,1018.89
2018-01-28T09:13:01.558Z,1018.93
2018-01-28T09:14:01.576Z,1019.02
2018-01-28T09:15:01.596Z,1018.96
2018-01-28T09:16:01.617Z,1018.98
2018-01-28T09:17:01.627Z,1019
2018-01-28T09:18:01.640Z,1019
2018-01-28T09:19:01.662Z,1019.12
2018-01-28T09:20:01.680Z,1019.03
2018-01-28T09:21:01.796Z,1019.08
2018-01-28T09:22:01.717Z,1018.98
2018-01-28T09:24:01.901Z,1019.13
2018-01-28T09:25:01.767Z,1019.08
2018-01-28T09:26:01.781Z,1019.1
2018-01-28T09:27:01.800Z,1019.08
2018-01-28T09:28:01.818Z,1019.22
2018-01-28T09:29:01.841Z,1019.19
2018-01-28T09:30:01.955Z,1019.13
2018-01-28T09:31:01.867Z,1019.03
2018-01-28T09:32:01.894Z,1019.15
2018-01-28T09:33:01.907Z,1019.14
2018-01-28T09:34:01.927Z,1019.21
2018-01-28T09:35:02.094Z,1019.28
2018-01-28T09:36:01.967Z,1019.23
2018-01-28T09:37:02.081Z,1019.27
2018-01-28T09:39:02.016Z,1019.32
2018-01-28T09:40:02.036Z,1019.34
2018-01-28T09:41:02.057Z,1019.27
2018-01-28T09:42:02.223Z,1019.36
2018-01-28T09:43:02.085Z,1019.35
2018-01-28T09:44:02.261Z,1019.4
2018-01-28T09:45:02.126Z,1019.4
2018-01-28T09:46:02.145Z,1019.46
2018-01-28T09:47:02.316Z,1019.37
2018-01-28T09:48:02.182Z,1019.41
2018-01-28T09:49:02.345Z,1019.44
2018-01-28T09:50:02.215Z,1019.5
2018-01-28T09:51:02.234Z,1019.46
2018-01-28T09:52:02.255Z,1019.54
2018-01-28T09:53:02.276Z,1019.53
2018-01-28T09:54:02.290Z,1019.5
2018-01-28T09:55:02.312Z,1019.63
2018-01-28T09:56:02.327Z,1019.61
2018-01-28T09:57:02.352Z,1019.61
2018-01-28T09:58:02.366Z,1019.7
2018-01-28T09:59:02.382Z,1019.5
2018-01-28T10:00:02.402Z,1019.52
2018-01-28T10:01:02.575Z,1019.46
2018-01-28T10:02:02.445Z,1019.39
2018-01-28T10:03:02.458Z,1019.43
2018-01-28T10:04:02.476Z,1019.42
2018-01-28T10:05:02.499Z,1019.39
2018-01-28T10:06:02.509Z,1019.4
2018-01-28T10:07:02.531Z,1019.42
2018-01-28T10:08:02.557Z,1019.43
2018-01-28T10:09:02.566Z,1019.39
2018-01-28T10:11:02.607Z,1019.29
2018-01-28T10:12:02.628Z,1019.31
2018-01-28T10:13:02.646Z,1019.4
2018-01-28T10:14:02.665Z,1019.39
2018-01-28T10:15:02.687Z,1019.38
2018-01-28T10:16:02.702Z,1019.33
2018-01-28T10:17:02.717Z,1019.41
2018-01-28T10:18:02.738Z,1019.25
2018-01-28T10:19:02.753Z,1019.26
2018-01-28T10:20:02.779Z,1019.19
2018-01-28T10:21:02.797Z,1019.22
2018-01-28T10:22:02.816Z,1019.15
2018-01-28T10:23:02.829Z,1019.13
2018-01-28T10:24:02.952Z,1019.15
2018-01-28T10:25:02.870Z,1019.16
2018-01-28T10:27:02.908Z,1019.15
2018-01-28T10:28:02.926Z,1019.17
2018-01-28T10:29:03.098Z,1019.24
2018-01-28T10:30:02.974Z,1019.16
2018-01-28T10:31:02.983Z,1019.22
2018-01-28T10:32:03.002Z,1019.28
2018-01-28T10:33:03.020Z,1019.23
2018-01-28T10:34:03.040Z,1019.25
2018-01-28T10:35:03.155Z,1019.29
2018-01-28T10:36:03.078Z,1019.28
2018-01-28T10:37:03.095Z,1019.36
2018-01-28T10:38:03.120Z,1019.44
2018-01-28T10:39:03.133Z,1019.32
2018-01-28T10:40:03.154Z,1019.32
2018-01-28T10:41:03.172Z,1019.32
2018-01-28T10:43:03.209Z,1019.33
2018-01-28T10:44:03.224Z,1019.26
2018-01-28T10:45:03.242Z,1019.34
2018-01-28T10:46:03.269Z,1019.42
2018-01-28T10:47:03.285Z,1019.35
2018-01-28T10:48:03.300Z,1019.45
2018-01-28T10:49:03.318Z,1019.44
2018-01-28T10:50:03.491Z,1019.49
2018-01-28T10:51:03.359Z,1019.45
2018-01-28T10:52:03.385Z,1019.38
2018-01-28T10:53:03.399Z,1019.4
2018-01-28T10:54:03.418Z,1019.45
2018-01-28T10:55:03.436Z,1019.36
2018-01-28T10:56:03.451Z,1019.32
2018-01-28T10:57:03.471Z,1019.38
2018-01-28T10:59:03.613Z,1019.17
2018-01-28T11:00:03.533Z,1019.23
2018-01-28T11:01:03.548Z,1019.38
2018-01-28T11:02:03.566Z,1019.41
2018-01-28T11:03:03.583Z,1019.38
2018-01-28T11:04:03.755Z,1019.43
2018-01-28T11:05:03.625Z,1019.51
2018-01-28T11:06:03.647Z,1019.49
2018-01-28T11:07:03.665Z,1019.55
2018-01-28T11:08:03.684Z,1019.51
2018-01-28T11:09:03.803Z,1019.48
2018-01-28T11:10:03.722Z,1019.59
2018-01-28T11:11:03.742Z,1019.55
2018-01-28T11:12:03.761Z,1019.66
2018-01-28T11:14:03.799Z,1019.58
2018-01-28T11:15:03.962Z,1019.62
2018-01-28T11:16:03.833Z,1019.68
2018-01-28T11:17:03.857Z,1019.66
2018-01-28T11:18:03.873Z,1019.6
2018-01-28T11:19:03.901Z,1019.63
2018-01-28T11:20:03.912Z,1019.49
2018-01-28T11:21:03.927Z,1019.52
2018-01-28T11:22:03.960Z,1019.56
2018-01-28T11:23:03.965Z,1019.59
2018-01-28T11:24:03.988Z,1019.66
2018-01-28T11:25:04.004Z,1019.57
2018-01-28T11:26:04.028Z,1019.61
2018-01-28T11:27:04.048Z,1019.66
2018-01-28T11:28:04.164Z,1019.47
2018-01-28T11:29:04.082Z,1019.58
2018-01-28T11:30:04.100Z,1019.53
2018-01-28T11:31:04.113Z,1019.57
2018-01-28T11:32:04.137Z,1019.55
2018-01-28T11:33:04.158Z,1019.53
2018-01-28T11:34:04.179Z,1019.6
2018-01-28T11:35:04.199Z,1019.53
2018-01-28T11:36:04.211Z,1019.44
2018-01-28T11:37:04.233Z,1019.41
2018-01-28T11:38:04.251Z,1019.57
2018-01-28T11:39:04.271Z,1019.43
2018-01-28T11:40:04.292Z,1019.51
2018-01-28T11:41:04.307Z,1019.59
2018-01-28T11:42:04.326Z,1019.64
2018-01-28T11:43:04.352Z,1019.62
2018-01-28T11:44:04.366Z,1019.55
2018-01-28T11:46:04.402Z,1019.46
2018-01-28T11:47:04.425Z,1019.48
2018-01-28T11:48:04.446Z,1019.46
2018-01-28T11:49:04.459Z,1019.43
2018-01-28T11:50:04.482Z,1019.42
2018-01-28T11:51:04.503Z,1019.47
2018-01-28T11:52:04.620Z,1019.51
2018-01-28T11:53:04.543Z,1019.53
2018-01-28T11:54:04.562Z,1019.5
2018-01-28T11:55:04.580Z,1019.54
2018-01-28T11:56:04.594Z,1019.53
2018-01-28T11:57:04.616Z,1019.51
2018-01-28T11:58:04.631Z,1019.59
2018-01-28T11:59:04.654Z,1019.76
2018-01-28T12:00:04.769Z,1019.67
2018-01-28T12:02:04.711Z,1019.59
2018-01-28T12:03:04.727Z,1019.57
2018-01-28T12:04:04.747Z,1019.6
2018-01-28T12:05:04.922Z,1019.69
2018-01-28T12:06:04.933Z,1019.79
2018-01-28T12:07:04.800Z,1019.79
2018-01-28T12:08:04.820Z,1019.85
2018-01-28T12:09:04.848Z,1019.78
2018-01-28T12:10:05.016Z,1019.81
2018-01-28T12:11:04.878Z,1019.78
2018-01-28T12:12:04.896Z,1019.78
2018-01-28T12:13:04.923Z,1019.76
2018-01-28T12:14:04.941Z,1019.78
2018-01-28T12:15:04.954Z,1019.68
2018-01-28T12:16:04.975Z,1019.67
2018-01-28T12:18:05.015Z,1019.69
2018-01-28T12:19:05.030Z,1019.68
2018-01-28T12:20:05.052Z,1019.59
2018-01-28T12:21:05.066Z,1019.64
2018-01-28T12:22:05.091Z,1019.7
2018-01-28T12:23:05.108Z,1019.64
2018-01-28T12:24:05.125Z,1019.62
2018-01-28T12:25:05.146Z,1019.69
2018-01-28T12:26:05.161Z,1019.64
2018-01-28T12:27:05.184Z,1019.57
2018-01-28T12:28:05.201Z,1019.63
2018-01-28T12:29:05.222Z,1019.56
2018-01-28T12:30:05.240Z,1019.48
2018-01-28T12:31:05.402Z,1019.48
2018-01-28T12:32:05.277Z,1019.47
2018-01-28T12:34:05.315Z,1019.53
2018-01-28T12:35:05.332Z,1019.49
2018-01-28T12:36:05.356Z,1019.57
2018-01-28T12:37:05.376Z,1019.59
2018-01-28T12:38:05.386Z,1019.55
2018-01-28T12:39:05.412Z,1019.6
2018-01-28T12:40:05.576Z,1019.56
2018-01-28T12:41:05.547Z,1019.51
2018-01-28T12:42:05.461Z,1019.48
2018-01-28T12:43:05.481Z,1019.49
2018-01-28T12:44:05.506Z,1019.46
2018-01-28T12:45:05.519Z,1019.55
2018-01-28T12:46:05.538Z,1019.6
2018-01-28T12:47:05.559Z,1019.47
2018-01-28T12:49:05.595Z,1019.32
2018-01-28T12:50:05.614Z,1019.25